Aviation Digital Data Service (ADDS)

Output produced by METARs form (1123 UTC 19 January 2019)
found at http://www.aviationweather.gov/metar/data/
 
KIYA 191110Z AUTO 20013G16KT 10SM BKN012 BKN022 OVC031 19/19 A2975 RMK AO2 LTG DSNT SW THRU N T01900190
KAEX 191117Z 28012KT 4SM VCTS RA BR BKN039 BKN065 OVC090 16/15 A2970 RMK AO2 PK WND 29029/1057 WSHFT 1041 LTG DSNT ALQDS TSE11 P0012 T01560150
KAEX 191020Z 1910/2006 21013G21KT P6SM -TSRA SCT015CB BKN050 
     TEMPO 1910/1913 VRB20G35KT 2SM TSRA BR BKN015CB 
     FM191300 26013G20KT P6SM -SHRA SCT006 OVC015 
     FM191500 30018G26KT P6SM OVC025 
     FM200000 33015G20KT P6SM OVC030
       
KESF 191104Z AUTO 27018G37KT 1 3/4SM +TSRA BR FEW013 BKN023 OVC044 18/18 A2969 RMK AO2 PK WND 27037/1101 LTG DSNT ALQDS PRESRR P0014 T01830178
KBQP 191115Z AUTO 26005KT 5SM +VCTSRA SCT012 BKN060 OVC090 15/14 A2964 RMK AO2 LTG DSNT E THRU SW P0006 T01460143
KBTR 191053Z 19014KT 10SM BKN016 OVC021 19/17 A2976 RMK AO2 SLP076 T01940172
KBTR 190526Z 1906/2006 22012G18KT P6SM VCSH OVC013 
     FM191500 23013KT 3SM SHRA BR OVC013 WS020/22045KT 
     FM191600 25014KT P6SM SHRA OVC023 
     FM191800 28017G25KT P6SM BKN030 
     FM200200 31014KT P6SM OVC040
       
KBXA 191115Z AUTO 21010G15KT 10SM OVC010 20/17 A2979 RMK AO2 LTG DSNT NW T01950168
K5R8 191115Z AUTO 28004KT 10SM -VCTSRA SCT015 BKN060 OVC085 14/13 A2974 RMK AO2 LTG DSNT ALQS T01410128
KDRI 191115Z AUTO 30003KT 10SM -VCTSRA SCT065 BKN080 OVC110 15/14 A2972 RMK AO2 LTG DSNT NE THRU S P0001 T01450138
KGAO 191115Z AUTO 18015G20KT 10SM SCT030 19/16 A2980 RMK AO2 T01870164
KHDC 191115Z AUTO 20014G18KT 10SM BKN010 OVC021 18/17 A2978 RMK AO2 LTG DSNT NW
KHDC 190526Z 1906/2006 15015G22KT P6SM OVC006 
     FM191000 17010KT P6SM VCSH OVC013 
     FM191700 22016KT P6SM SHRA VCTS OVC022CB 
     FM192100 29015KT P6SM BKN040 
     FM200300 32013KT P6SM OVC026
       
KHUM 191115Z AUTO 18012G17KT 7SM BKN016 OVC034 19/18 A2979 RMK AO2 T01850178
KHUM 190526Z 1906/2006 17012G19KT P6SM VCSH SCT050 BKN200 
     FM191200 19011KT P6SM VCSH BKN030 OVC180 
     FM191900 29017KT P6SM BKN040 
     FM192100 30018KT P6SM BKN030 
     FM192300 31017G25KT P6SM BKN035
       
K3R7 191115Z AUTO 19013G23KT 10SM OVC013 19/18 A2971 RMK AO2 LTG DSNT SW THRU N T01920176
KLFT 191106Z AUTO 19014G20KT 10SM BKN014 BKN022 OVC033 20/18 A2975 RMK AO2 T02000183
KLFT 190525Z 1906/2006 19013G18KT 6SM -DZ BR VCSH OVC009 
     TEMPO 1912/1915 VRB17G25KT 2SM TSRA SCT004 BKN012CB 
     FM191500 27013G20KT P6SM -SHRA SCT006 OVC015 
     FM191700 31018G26KT P6SM OVC025 
     FM200000 34016G22KT P6SM OVC035
       
KCWF 191115Z 23016G27KT 7SM VCTS OVC007 19/18 A2974 RMK AO2 LTG DSNT ALQS P0001 T01930185
KLCH 191111Z AUTO 22012G23KT 6SM VCTS -RA BR OVC006 19/18 A2973 RMK AO2 LTG DSNT ALQDS RAB06 PRESRR P0000 T01890183
KLCH 190929Z 1909/2006 18014G20KT 6SM -TSRA BR OVC007CB 
     TEMPO 1910/1913 VRB19G37KT 1SM TSRA SCT004 BKN012CB 
     FM191300 27013G20KT P6SM -SHRA SCT006 OVC015 
     FM191500 31018G26KT P6SM OVC035 
     FM200200 34013G20KT P6SM SCT250
       
K3F3 191115Z AUTO 20007KT 10SM OVC100 16/15 A2967 RMK AO2 LTG DSNT NE AND E T01580146
KMNE 191115Z AUTO 00000KT 10SM OVC090 15/14 A2962 RMK AO2 LTG DSNT E AND SE T01450135
KMLU 191104Z AUTO 27012G23KT 5SM +RA BR FEW011 BKN045 OVC070 16/14 A2964 RMK AO2 WSHFT 1040 LTG DSNT E-SW P0004 T01560144
KMLU 190925Z 1909/2006 20013G18KT 6SM -SHRA VCTS OVC015CB 
     TEMPO 1909/1912 VRB20G30KT 3SM TSRA BR OVC010CB 
     FM191300 25013G20KT P6SM BKN015 
     FM191800 30018G28KT P6SM OVC020 
     FM200000 33016G25KT P6SM OVC025
       
KIER 191115Z AUTO 18004KT 10SM RA SCT080 OVC110 15/15 A2966 RMK AO2 LTG DSNT NE THRU S P0001 T01510145
KARA 191053Z AUTO 21014KT 10SM SCT020 BKN027 OVC033 19/17 A2977 RMK AO2 PK WND 19026/0959 SLP080 T01940172
KARA 190525Z 1906/2006 18014G20KT P6SM VCSH SCT007 OVC090 
     TEMPO 1906/1908 BKN007 
     FM190800 19015G21KT 6SM -DZ BR VCSH OVC012 
     TEMPO 1912/1915 VRB19G28KT 2SM TSRA SCT004 BKN009CB 
     FM191500 27015G22KT P6SM -SHRA SCT006 OVC015 
     FM191800 31020G28KT P6SM OVC025 
     FM200000 34017G23KT P6SM OVC035
       
KNEW 191105Z AUTO 19021KT 10SM FEW015 OVC031 19/17 A2979 RMK AO2 PK WND 18026/1102 T01940172
KNEW 190526Z 1906/2006 16011KT P6SM BKN180 
     FM191400 21015G24KT P6SM VCSH OVC022 
     FM191800 26016G26KT P6SM -SHRA VCTS OVC035CB 
     FM192100 29021G32KT P6SM VCSH OVC029 
     FM192300 30026G41KT P6SM VCSH BKN035
       
KMSY 191053Z 18011KT 9SM SCT012 BKN021 BKN110 OVC150 19/18 A2978 RMK AO2 SLP088 T01940183
KMSY 190526Z 1906/2012 17011G19KT P6SM FEW090 OVC130 
     FM191500 22012G20KT P6SM VCSH OVC017 
     FM191730 23014G22KT 4SM TSRA OVC025CB 
     FM192000 28017G28KT P6SM VCSH BKN050 
     FM200100 31020G38KT P6SM OVC030 
     FM201000 33017G32KT P6SM SCT040
       
KHZR 191116Z AUTO 19017G22KT 10SM BKN019 OVC026 20/17 A2974 RMK AO2 LTG DSNT W THRU N
KACP 191115Z AUTO 24005G15KT 5SM +VCTSRA OVC013 20/18 A2970 RMK AO2 LTG DSNT SW THRU NE P0006 T01970181
KOPL 191115Z AUTO 20019G30KT 10SM OVC016 20/17 A2970 RMK AO2 LTG DSNT W THRU N T02000174
KPTN 191056Z AUTO 19014KT 10SM SCT035 OVC110 19/18 A2978 RMK AO2 SLP086 T01890178
KRSN 191115Z AUTO 20007KT 10SM -DZ SCT080 OVC110 15/13 A2966 RMK AO2 LTG DSNT E THRU S T01450131
KDTN 191053Z AUTO 23005KT 10SM OVC100 16/14 A2960 RMK AO2 SLP023 T01610144
KSHV 191056Z 22008KT 10SM BKN100 OVC160 16/14 A2962 RMK AO2 SLP028 T01560144 $
KSHV 190923Z 1909/2006 22015KT 6SM BR VCSH OVC080 
     TEMPO 1909/1911 5SM -SHRA BR OVC060 
     FM191100 29018G25KT P6SM BKN015 
     FM191600 30019G28KT P6SM OVC025 
     FM200300 33015G25KT P6SM SKC
       
KASD 191108Z AUTO 18008KT 10SM OVC016 18/16 A2979 RMK AO2 T01780161
KASD 190526Z 1906/2006 15009KT P6SM OVC004 
     FM191500 20014KT P6SM VCSH OVC021 WS020/21045KT 
     FM191800 23011KT P6SM -SHRA VCTS OVC016CB 
     FM192000 27013G21KT P6SM OVC025 
     FM200500 32013G21KT P6SM OVC035
       
KUXL 191115Z AUTO 31013G28KT 4SM +VCTSRA BKN007 OVC011 17/15 A2975 RMK AO2 LTG DSNT ALQS P0010 T01680146
KTVR 191105Z AUTO 22007G21KT 180V260 4SM VCTS RA BR SCT050 BKN080 OVC090 18/16 A2963 RMK AO2 LTG DSNT ALQDS TSE05 P0004 T01780161
K0R4 191115Z AUTO 18018G23KT 10SM TS BKN018 BKN023 OVC029 18/17 A2964 RMK AO2 LTG DSNT ALQS T01810169